Time;durP1;ratioP1;P1;durP2;ratioP2;P2;SDS_P1;SDS_P2;PMS_P1;PMS_P2;Temp;Humidity;BMP_temperature;BMP_pressure;BME280_temperature;BME280_humidity;BME280_pressure;Samples;Min_cycle;Max_cycle;Signal;HPM_P1;HPM_P2
2022/02/16 00:00:10;;;;;;;25.70;14.00;;;1.20;90.60;;;;;;4906129;29;20047;-89
2022/02/16 00:02:36;;;;;;;26.33;12.50;;;1.20;90.90;;;;;;4884741;29;20387;-90
2022/02/16 00:05:01;;;;;;;28.15;12.57;;;1.20;91.40;;;;;;4900797;29;20032;-90
2022/02/16 00:07:27;;;;;;;23.35;10.65;;;1.20;91.50;;;;;;4918504;29;20036;-90
2022/02/16 00:09:52;;;;;;;19.70;9.93;;;1.20;91.50;;;;;;4916968;29;20047;-91
2022/02/16 00:12:18;;;;;;;18.73;9.75;;;1.20;91.60;;;;;;4918208;29;20031;-89
2022/02/16 00:14:44;;;;;;;20.40;9.93;;;1.20;92.10;;;;;;4903953;29;20095;-90
2022/02/16 00:17:09;;;;;;;17.48;9.07;;;1.20;92.10;;;;;;4883868;29;20071;-90
2022/02/16 00:19:35;;;;;;;19.50;9.63;;;1.20;92.00;;;;;;4926575;29;20028;-90
2022/02/16 00:22:01;;;;;;;16.55;8.77;;;1.20;92.40;;;;;;4920785;29;20502;-90
2022/02/16 00:24:27;;;;;;;15.82;8.52;;;1.20;92.60;;;;;;4917982;29;20028;-90
2022/02/16 00:26:52;;;;;;;16.75;8.38;;;1.20;92.80;;;;;;4900064;29;20036;-90
2022/02/16 00:29:18;;;;;;;16.00;8.18;;;1.10;92.80;;;;;;4896830;29;20036;-90
2022/02/16 00:31:44;;;;;;;15.60;8.68;;;1.20;92.70;;;;;;4898581;29;20091;-89
2022/02/16 00:34:10;;;;;;;14.25;7.85;;;1.20;92.20;;;;;;4882566;29;20029;-90
2022/02/16 00:36:35;;;;;;;15.60;8.95;;;1.30;92.20;;;;;;4882945;29;20028;-89
2022/02/16 00:39:01;;;;;;;17.08;8.48;;;1.30;92.50;;;;;;4901415;29;20036;-88
2022/02/16 00:41:28;;;;;;;19.88;10.40;;;1.40;92.20;;;;;;4897567;29;20077;-89
2022/02/16 00:43:54;;;;;;;19.70;9.88;;;1.50;92.20;;;;;;4897195;29;20052;-90
2022/02/16 00:46:19;;;;;;;18.15;9.32;;;1.50;92.10;;;;;;4899247;29;20033;-87
2022/02/16 00:48:45;;;;;;;18.58;10.30;;;1.60;91.90;;;;;;4887305;29;20043;-87
2022/02/16 00:51:11;;;;;;;19.85;10.52;;;1.70;92.20;;;;;;4880755;29;20036;-89
2022/02/16 00:53:37;;;;;;;18.20;9.82;;;1.70;92.10;;;;;;4905069;29;20411;-88
2022/02/16 00:56:03;;;;;;;21.17;10.00;;;1.80;92.20;;;;;;4916991;29;20111;-90
2022/02/16 00:58:28;;;;;;;22.45;11.32;;;1.80;91.90;;;;;;4900793;29;20121;-90
2022/02/16 01:00:54;;;;;;;23.67;12.75;;;1.90;91.70;;;;;;4917740;29;20032;-87
2022/02/16 01:03:19;;;;;;;22.77;11.77;;;2.00;91.50;;;;;;4917734;29;20390;-90
2022/02/16 01:05:46;;;;;;;26.35;14.50;;;2.00;91.10;;;;;;4903811;29;20032;-87
2022/02/16 01:08:12;;;;;;;24.73;14.65;;;2.00;91.40;;;;;;4906148;29;20032;-87
2022/02/16 01:10:39;;;;;;;30.88;17.27;;;2.10;91.30;;;;;;4924339;29;20044;-89
2022/02/16 01:13:05;;;;;;;30.95;18.08;;;2.10;91.80;;;;;;4920163;29;20029;-89
2022/02/16 01:15:31;;;;;;;29.90;17.08;;;2.20;91.50;;;;;;4927921;29;20036;-90
2022/02/16 01:17:57;;;;;;;24.85;15.25;;;2.20;91.20;;;;;;4905577;29;20032;-89
2022/02/16 01:20:23;;;;;;;26.10;14.60;;;2.20;91.30;;;;;;4919593;29;20155;-91
2022/02/16 01:22:49;;;;;;;22.38;13.00;;;2.30;91.40;;;;;;4903261;29;20447;-89
2022/02/16 01:25:15;;;;;;;25.75;13.02;;;2.30;91.60;;;;;;4905815;29;20077;-89
2022/02/16 01:27:41;;;;;;;25.48;14.75;;;2.30;91.50;;;;;;4929433;29;20115;-88
2022/02/16 01:30:08;;;;;;;28.83;15.05;;;2.40;91.70;;;;;;4911482;29;20541;-89
2022/02/16 01:32:34;;;;;;;27.50;14.73;;;2.40;91.60;;;;;;4922733;29;20052;-88
2022/02/16 01:35:00;;;;;;;27.02;14.55;;;2.40;91.80;;;;;;4920199;29;20047;-89
2022/02/16 01:37:26;;;;;;;26.70;14.30;;;2.40;91.70;;;;;;4919873;29;20115;-90
2022/02/16 01:39:52;;;;;;;22.70;12.40;;;2.40;91.50;;;;;;4920028;29;20035;-88
2022/02/16 01:42:19;;;;;;;21.35;10.90;;;2.50;91.60;;;;;;4922982;29;20059;-87
2022/02/16 01:44:45;;;;;;;19.25;10.52;;;2.50;91.60;;;;;;4923626;29;20067;-90
2022/02/16 01:47:11;;;;;;;18.55;10.45;;;2.50;91.60;;;;;;4903505;29;20035;-89
2022/02/16 01:49:38;;;;;;;19.60;10.65;;;2.50;91.70;;;;;;4919807;29;20490;-89
2022/02/16 01:52:05;;;;;;;18.20;9.65;;;2.50;92.00;;;;;;4903401;29;20028;-89
2022/02/16 01:54:31;;;;;;;16.38;9.40;;;2.50;91.60;;;;;;4901152;29;20047;-89
2022/02/16 01:56:57;;;;;;;18.55;9.80;;;2.50;91.70;;;;;;4914352;29;20040;-89
2022/02/16 01:59:24;;;;;;;18.80;10.35;;;2.50;91.50;;;;;;4899188;29;20029;-89
2022/02/16 02:01:51;;;;;;;18.15;10.38;;;2.60;91.40;;;;;;4884063;29;20036;-88
2022/02/16 02:04:17;;;;;;;19.85;10.48;;;2.60;91.40;;;;;;4901714;29;20036;-87
2022/02/16 02:06:44;;;;;;;19.85;10.50;;;2.60;91.60;;;;;;4900968;29;20028;-89
2022/02/16 02:09:10;;;;;;;22.27;11.52;;;2.60;91.80;;;;;;4904320;29;20032;-89
2022/02/16 02:11:36;;;;;;;19.58;11.27;;;2.60;92.00;;;;;;4927092;29;20032;-89
2022/02/16 02:14:05;;;;;;;20.85;11.23;;;2.70;91.70;;;;;;4921523;29;20031;-90
2022/02/16 02:16:30;;;;;;;19.50;11.32;;;2.70;91.70;;;;;;4903145;29;20534;-91
2022/02/16 02:18:57;;;;;;;22.95;12.15;;;2.70;91.70;;;;;;4919789;29;20032;-89
2022/02/16 02:21:23;;;;;;;23.70;12.07;;;2.60;92.20;;;;;;4902363;29;20036;-91
2022/02/16 02:23:50;;;;;;;19.77;10.65;;;2.60;92.00;;;;;;4920014;29;20037;-90
2022/02/16 02:26:17;;;;;;;19.83;10.82;;;2.70;91.90;;;;;;4919518;29;20025;-89
2022/02/16 02:28:42;;;;;;;21.35;11.10;;;2.70;91.90;;;;;;4902865;29;20494;-90
2022/02/16 02:31:08;;;;;;;21.17;10.95;;;2.70;92.10;;;;;;4918803;29;20035;-90
2022/02/16 02:33:37;;;;;;;21.35;11.52;;;2.70;92.20;;;;;;4890169;29;20042;-88
2022/02/16 02:36:03;;;;;;;22.13;11.13;;;2.80;92.40;;;;;;4900324;29;20028;-90
2022/02/16 02:38:29;;;;;;;21.30;10.57;;;2.80;92.30;;;;;;4887498;29;20045;-90
2022/02/16 02:40:57;;;;;;;19.35;10.43;;;2.70;91.90;;;;;;4915869;29;20032;-90
2022/02/16 02:43:25;;;;;;;21.25;11.57;;;2.80;92.00;;;;;;4909733;29;20032;-90
2022/02/16 02:45:52;;;;;;;21.02;12.13;;;2.80;92.20;;;;;;4899806;29;20070;-89
2022/02/16 02:48:21;;;;;;;20.40;11.05;;;2.80;92.30;;;;;;4901997;29;20122;-90
2022/02/16 02:50:47;;;;;;;23.17;12.80;;;2.90;92.20;;;;;;4901662;29;20032;-90
2022/02/16 02:53:13;;;;;;;24.73;12.82;;;2.90;91.80;;;;;;4899968;29;20494;-90
2022/02/16 02:55:39;;;;;;;24.08;13.38;;;2.90;92.50;;;;;;4900408;29;20088;-90
2022/02/16 02:58:06;;;;;;;27.20;14.35;;;2.90;92.60;;;;;;4898687;29;20068;-89
2022/02/16 03:00:32;;;;;;;27.23;14.60;;;2.90;92.70;;;;;;4883183;29;20033;-91
2022/02/16 03:02:58;;;;;;;24.02;13.65;;;2.90;93.10;;;;;;4898353;29;20029;-88
2022/02/16 03:05:23;;;;;;;24.52;12.43;;;2.90;93.10;;;;;;4898862;29;20456;-87
2022/02/16 03:07:50;;;;;;;21.67;12.48;;;2.90;93.80;;;;;;4895160;29;20104;-87
2022/02/16 03:10:16;;;;;;;22.00;11.82;;;2.90;94.00;;;;;;4883679;29;20033;-90
2022/02/16 03:12:42;;;;;;;19.90;11.95;;;2.90;94.40;;;;;;4893431;29;20051;-90
2022/02/16 03:15:10;;;;;;;16.92;10.07;;;2.90;94.40;;;;;;4885738;29;20062;-89
2022/02/16 03:17:35;;;;;;;17.15;10.00;;;2.90;94.60;;;;;;4902019;29;20043;-89
2022/02/16 03:20:04;;;;;;;15.88;8.82;;;3.00;95.10;;;;;;4918700;29;20454;-89
2022/02/16 03:22:29;;;;;;;15.25;9.40;;;3.00;95.20;;;;;;4901446;29;20036;-92
2022/02/16 03:24:55;;;;;;;16.85;9.30;;;3.00;95.80;;;;;;4904709;29;20048;-91
2022/02/16 03:27:21;;;;;;;17.35;10.27;;;3.00;96.30;;;;;;4899530;29;20068;-89
2022/02/16 03:29:47;;;;;;;16.17;8.18;;;2.90;96.70;;;;;;4883412;29;20370;-89
2022/02/16 03:32:12;;;;;;;17.25;9.60;;;2.90;96.50;;;;;;4899068;29;20032;-90
2022/02/16 03:34:38;;;;;;;20.30;11.55;;;3.00;96.40;;;;;;4890554;29;20480;-90
2022/02/16 03:37:04;;;;;;;20.52;11.07;;;3.00;96.50;;;;;;4889363;29;20404;-91
2022/02/16 03:39:31;;;;;;;20.08;10.55;;;3.00;96.40;;;;;;4867735;29;20037;-90
2022/02/16 03:41:59;;;;;;;24.40;12.60;;;3.00;97.00;;;;;;4888345;29;20035;-89
2022/02/16 03:44:26;;;;;;;23.27;11.95;;;3.00;97.00;;;;;;4907020;29;20444;-90
2022/02/16 03:46:52;;;;;;;22.75;11.55;;;3.00;97.50;;;;;;4888657;29;20510;-89
2022/02/16 03:49:18;;;;;;;25.92;14.48;;;3.00;97.30;;;;;;4899234;29;20104;-89
2022/02/16 03:51:44;;;;;;;27.67;13.13;;;3.00;97.60;;;;;;4881200;29;20479;-89
2022/02/16 03:54:10;;;;;;;29.05;12.43;;;3.00;98.00;;;;;;4881587;29;20032;-91
2022/02/16 03:56:36;;;;;;;39.53;19.55;;;3.00;97.70;;;;;;4882237;29;20044;-89
2022/02/16 03:59:02;;;;;;;36.63;18.27;;;3.00;98.30;;;;;;4881623;29;20052;-88
2022/02/16 04:01:28;;;;;;;36.17;16.52;;;3.00;98.80;;;;;;4901633;29;20067;-89
2022/02/16 04:03:54;;;;;;;31.50;16.00;;;3.00;99.00;;;;;;4905804;29;20029;-88
2022/02/16 04:06:20;;;;;;;28.75;14.73;;;3.00;99.20;;;;;;4905644;29;20025;-89
2022/02/16 04:08:46;;;;;;;22.30;11.63;;;3.00;99.20;;;;;;4866843;29;20088;-89
2022/02/16 04:11:12;;;;;;;19.05;10.50;;;3.00;99.70;;;;;;4898696;29;20032;-90
2022/02/16 04:13:38;;;;;;;25.05;12.85;;;3.00;99.90;;;;;;4898754;29;20028;-91
2022/02/16 04:16:04;;;;;;;21.67;12.23;;;3.00;99.90;;;;;;4881679;29;20092;-89
2022/02/16 04:18:30;;;;;;;20.05;11.38;;;3.00;99.90;;;;;;4882267;29;20123;-89
2022/02/16 04:20:55;;;;;;;24.25;11.63;;;3.00;99.90;;;;;;4881689;29;20036;-89
2022/02/16 04:23:22;;;;;;;19.63;9.73;;;3.00;99.90;;;;;;4898702;29;20029;-89
2022/02/16 04:25:47;;;;;;;24.27;10.65;;;3.00;99.90;;;;;;4900983;29;20029;-89
2022/02/16 04:28:13;;;;;;;21.95;11.15;;;3.10;99.90;;;;;;4898364;29;20068;-89
2022/02/16 04:30:39;;;;;;;22.65;11.15;;;3.10;99.90;;;;;;4888312;29;20048;-88
2022/02/16 04:33:05;;;;;;;24.02;11.63;;;3.10;99.90;;;;;;4896598;29;20455;-89
2022/02/16 04:35:31;;;;;;;26.10;14.63;;;3.10;99.90;;;;;;4917029;29;20431;-89
2022/02/16 04:37:57;;;;;;;30.63;14.88;;;3.20;99.90;;;;;;4917822;29;20503;-88
2022/02/16 04:40:23;;;;;;;34.85;17.17;;;3.10;99.90;;;;;;4897710;29;20039;-88
2022/02/16 04:42:49;;;;;;;43.67;17.98;;;3.20;99.90;;;;;;4900313;29;20399;-88
2022/02/16 04:45:15;;;;;;;44.85;18.60;;;3.10;99.90;;;;;;4902014;29;20055;-90
2022/02/16 04:47:41;;;;;;;52.65;22.05;;;3.10;99.90;;;;;;4922184;29;20051;-89
2022/02/16 04:50:08;;;;;;;63.08;25.98;;;3.20;99.90;;;;;;4932986;29;20027;-90
2022/02/16 04:52:36;;;;;;;68.00;27.35;;;3.20;99.90;;;;;;4922189;29;20055;-89
2022/02/16 04:55:08;;;;;;;55.92;21.65;;;3.20;99.90;;;;;;4897783;29;20032;-88
2022/02/16 04:57:34;;;;;;;55.17;19.85;;;3.10;99.90;;;;;;4908604;29;20044;-88
2022/02/16 05:00:00;;;;;;;41.78;18.58;;;3.20;99.90;;;;;;4916284;29;20029;-89
2022/02/16 05:02:26;;;;;;;47.65;19.55;;;3.20;99.90;;;;;;4918643;29;20019;-91
2022/02/16 05:04:55;;;;;;;47.30;20.08;;;3.20;99.90;;;;;;4926174;29;20126;-88
2022/02/16 05:07:22;;;;;;;41.72;17.92;;;3.20;99.90;;;;;;4925151;29;20087;-92
2022/02/16 05:09:47;;;;;;;39.13;19.48;;;3.10;99.90;;;;;;4930096;29;20113;-91
2022/02/16 05:12:13;;;;;;;43.67;20.20;;;3.20;99.90;;;;;;4904044;29;20059;-90
2022/02/16 05:14:40;;;;;;;42.22;20.08;;;3.10;99.90;;;;;;4906216;29;20084;-90
2022/02/16 05:17:05;;;;;;;38.53;19.08;;;3.10;99.90;;;;;;4939701;29;20105;-90
2022/02/16 05:19:31;;;;;;;31.50;16.38;;;3.10;99.90;;;;;;4932975;29;20146;-90
2022/02/16 05:21:57;;;;;;;39.47;18.00;;;3.10;99.90;;;;;;4903079;29;20471;-90
2022/02/16 05:24:23;;;;;;;34.80;17.15;;;3.20;99.90;;;;;;4920024;29;20467;-92
2022/02/16 05:26:49;;;;;;;34.42;17.42;;;3.20;99.90;;;;;;4908789;29;20040;-91
2022/02/16 05:29:15;;;;;;;31.02;16.20;;;3.20;99.90;;;;;;4923765;29;20039;-90
2022/02/16 05:31:41;;;;;;;35.70;16.63;;;3.20;99.90;;;;;;4907850;29;20495;-89
2022/02/16 05:34:06;;;;;;;33.83;16.08;;;3.20;99.90;;;;;;4893572;29;20038;-92
2022/02/16 05:36:35;;;;;;;48.78;20.30;;;3.20;99.90;;;;;;4907775;29;20036;-93
2022/02/16 05:39:01;;;;;;;53.90;24.85;;;3.20;99.90;;;;;;4926302;29;20060;-92
2022/02/16 05:41:30;;;;;;;71.10;27.33;;;3.20;99.90;;;;;;4923600;29;20043;-91
2022/02/16 05:43:57;;;;;;;69.95;28.38;;;3.20;99.90;;;;;;4908991;29;20065;-92
2022/02/16 05:46:23;;;;;;;63.72;27.35;;;3.30;99.90;;;;;;4908369;29;20032;-93
2022/02/16 05:48:49;;;;;;;57.03;24.98;;;3.20;99.90;;;;;;4895086;29;20123;-92
2022/02/16 05:51:14;;;;;;;47.75;21.40;;;3.20;99.90;;;;;;4902976;29;20071;-92
2022/02/16 05:53:40;;;;;;;46.80;20.35;;;3.20;99.90;;;;;;4889992;29;20055;-90
2022/02/16 05:56:06;;;;;;;41.25;18.50;;;3.20;99.90;;;;;;4911995;29;20028;-92
2022/02/16 05:58:32;;;;;;;40.40;18.48;;;3.20;99.90;;;;;;4905628;29;20149;-93
2022/02/16 06:00:59;;;;;;;35.80;17.02;;;3.30;99.90;;;;;;4908836;29;20032;-91
2022/02/16 06:03:25;;;;;;;41.78;17.30;;;3.20;99.90;;;;;;4909548;29;20036;-90
2022/02/16 06:05:52;;;;;;;35.03;16.10;;;3.20;99.90;;;;;;4912586;29;20107;-89
2022/02/16 06:08:18;;;;;;;35.63;16.48;;;3.20;99.90;;;;;;4891502;29;20425;-89
2022/02/16 06:10:44;;;;;;;30.70;15.05;;;3.20;99.90;;;;;;4908410;29;20443;-90
2022/02/16 06:13:12;;;;;;;21.23;12.80;;;3.20;99.90;;;;;;4900526;29;20051;-90
2022/02/16 06:15:38;;;;;;;22.08;12.50;;;3.20;99.90;;;;;;4893098;29;20024;-90
2022/02/16 06:18:04;;;;;;;28.17;12.80;;;3.20;99.90;;;;;;4892311;29;20035;-90
2022/02/16 06:20:31;;;;;;;27.88;13.27;;;3.10;99.90;;;;;;4893674;29;20033;-89
2022/02/16 06:22:57;;;;;;;26.98;14.52;;;3.20;99.90;;;;;;4911423;29;20035;-90
2022/02/16 06:25:25;;;;;;;36.50;16.38;;;3.20;99.90;;;;;;4913254;29;20044;-88
2022/02/16 06:27:51;;;;;;;35.10;16.67;;;3.20;99.90;;;;;;4907160;29;20127;-90
2022/02/16 06:30:17;;;;;;;31.40;17.00;;;3.20;99.90;;;;;;4889861;29;20127;-87
2022/02/16 06:32:45;;;;;;;33.90;16.48;;;3.20;99.90;;;;;;4904692;29;20043;-90
2022/02/16 06:35:11;;;;;;;34.78;17.70;;;3.20;99.90;;;;;;4888118;29;20063;-91
2022/02/16 06:37:37;;;;;;;34.67;18.95;;;3.20;99.90;;;;;;4889412;29;20023;-83
2022/02/16 06:40:04;;;;;;;40.05;19.80;;;3.20;99.90;;;;;;4916399;29;20032;-88
2022/02/16 06:42:29;;;;;;;40.33;20.23;;;3.20;99.90;;;;;;4899376;29;20123;-85
2022/02/16 06:44:55;;;;;;;34.80;19.27;;;3.20;99.90;;;;;;4898824;29;20132;-90
2022/02/16 06:47:21;;;;;;;42.83;21.30;;;3.20;99.90;;;;;;4917348;29;20040;-83
2022/02/16 06:49:46;;;;;;;52.95;26.70;;;3.20;99.90;;;;;;4904686;29;20028;-85
2022/02/16 06:52:12;;;;;;;57.95;30.52;;;3.20;99.90;;;;;;4904493;29;20092;-86
2022/02/16 06:54:38;;;;;;;50.63;27.20;;;3.20;99.90;;;;;;4916217;29;20091;-88
2022/02/16 06:57:03;;;;;;;46.13;24.20;;;3.20;99.90;;;;;;4898934;29;20050;-88
2022/02/16 06:59:29;;;;;;;62.45;26.92;;;3.20;99.90;;;;;;4899238;29;20048;-88
2022/02/16 07:01:55;;;;;;;63.22;29.50;;;3.20;99.90;;;;;;4896982;29;20070;-88
2022/02/16 07:04:21;;;;;;;84.43;38.85;;;3.20;99.90;;;;;;4899312;29;20112;-90
2022/02/16 07:06:47;;;;;;;72.38;34.40;;;3.20;99.90;;;;;;4902860;29;20596;-88
2022/02/16 07:09:12;;;;;;;74.15;35.35;;;3.20;99.90;;;;;;4909784;29;20028;-86
2022/02/16 07:11:38;;;;;;;104.95;47.03;;;3.20;99.90;;;;;;4896471;29;20040;-86
2022/02/16 07:14:04;;;;;;;94.13;42.08;;;3.20;99.90;;;;;;4902126;29;20024;-91
2022/02/16 07:16:30;;;;;;;59.03;28.52;;;3.30;99.90;;;;;;4882151;29;20029;-90
2022/02/16 07:18:56;;;;;;;57.63;29.08;;;3.30;99.90;;;;;;4920006;29;20032;-87
2022/02/16 07:21:26;;;;;;;59.63;29.42;;;3.30;99.90;;;;;;4898348;29;20511;-89
2022/02/16 07:23:58;;;;;;;54.20;24.83;;;3.30;99.90;;;;;;4914006;29;20035;-82
2022/02/16 07:26:24;;;;;;;47.40;23.55;;;3.30;99.90;;;;;;4895626;29;20032;-90
2022/02/16 07:28:56;;;;;;;45.65;23.75;;;3.40;99.90;;;;;;4902684;29;20095;-86
2022/02/16 07:31:25;;;;;;;44.30;22.33;;;3.40;99.90;;;;;;4893541;29;20028;-91
2022/02/16 07:33:51;;;;;;;42.70;19.80;;;3.30;99.90;;;;;;4894307;29;20032;-87
2022/02/16 07:36:17;;;;;;;39.45;20.15;;;3.30;99.90;;;;;;4877424;29;20056;-89
2022/02/16 07:38:46;;;;;;;35.10;18.70;;;3.40;99.90;;;;;;4877540;29;20550;-89
2022/02/16 07:41:11;;;;;;;47.53;23.58;;;3.40;99.90;;;;;;4876704;29;20036;-89
2022/02/16 07:43:39;;;;;;;46.13;22.13;;;3.40;99.90;;;;;;4891052;29;20025;-89
2022/02/16 07:46:05;;;;;;;57.03;23.02;;;3.50;99.90;;;;;;4876487;29;20048;-87
2022/02/16 07:48:31;;;;;;;46.20;21.77;;;3.50;99.90;;;;;;4882296;29;20044;-88
2022/02/16 07:50:56;;;;;;;40.40;18.60;;;3.50;99.90;;;;;;4892078;29;20021;-86
2022/02/16 07:53:22;;;;;;;35.67;17.05;;;3.50;99.90;;;;;;4875286;29;20052;-85
2022/02/16 07:55:48;;;;;;;36.03;14.93;;;3.50;99.90;;;;;;4892431;29;20395;-87
2022/02/16 07:58:14;;;;;;;34.60;14.50;;;3.60;99.90;;;;;;4876857;29;20390;-89
2022/02/16 08:00:40;;;;;;;28.85;14.13;;;3.60;99.90;;;;;;4877842;29;20101;-90
2022/02/16 08:03:06;;;;;;;30.35;14.52;;;3.60;99.90;;;;;;4876898;29;20028;-88
2022/02/16 08:05:33;;;;;;;28.50;13.68;;;3.60;99.90;;;;;;4876752;29;20036;-88
2022/02/16 08:07:59;;;;;;;30.08;13.73;;;3.60;99.90;;;;;;4894600;29;20032;-88
2022/02/16 08:10:25;;;;;;;31.58;14.63;;;3.60;99.90;;;;;;4877724;29;20478;-89
2022/02/16 08:13:07;;;;;;;26.67;14.52;;;3.50;99.90;;;;;;4895169;29;20029;-88
2022/02/16 08:15:38;;;;;;;26.15;13.10;;;3.50;99.90;;;;;;4880031;29;20035;-87
2022/02/16 08:18:04;;;;;;;36.92;14.63;;;3.60;99.90;;;;;;4898249;29;20037;-87
2022/02/16 08:20:30;;;;;;;25.80;13.18;;;3.60;99.90;;;;;;4898508;29;20080;-87
2022/02/16 08:22:55;;;;;;;29.48;13.18;;;3.60;99.90;;;;;;4899860;29;20059;-89
2022/02/16 08:25:21;;;;;;;27.52;13.93;;;3.60;99.90;;;;;;4897575;29;20452;-88
2022/02/16 08:27:47;;;;;;;41.05;16.70;;;3.60;99.90;;;;;;4903382;29;20037;-88
2022/02/16 08:30:14;;;;;;;46.20;19.75;;;3.60;99.90;;;;;;4904967;29;20122;-88
2022/02/16 08:32:40;;;;;;;38.95;19.55;;;3.60;99.90;;;;;;4900485;29;20035;-88
2022/02/16 08:35:10;;;;;;;30.30;15.88;;;3.60;99.90;;;;;;4898431;29;20028;-91
2022/02/16 08:37:37;;;;;;;30.08;15.07;;;3.70;99.90;;;;;;4898242;29;20089;-89
2022/02/16 08:40:05;;;;;;;26.02;14.25;;;3.60;99.90;;;;;;4896544;29;20036;-88
2022/02/16 08:42:31;;;;;;;24.50;13.82;;;3.60;99.90;;;;;;4897152;29;20071;-88
2022/02/16 08:44:58;;;;;;;31.35;16.08;;;3.60;99.90;;;;;;4897175;29;20113;-88
2022/02/16 08:47:25;;;;;;;31.90;16.60;;;3.60;99.90;;;;;;4897130;29;20049;-91
2022/02/16 08:49:51;;;;;;;27.20;14.90;;;3.60;99.90;;;;;;4898101;29;20020;-87
2022/02/16 08:52:17;;;;;;;41.67;17.70;;;3.60;99.90;;;;;;4895815;29;20476;-89
2022/02/16 08:54:45;;;;;;;37.45;18.35;;;3.60;99.90;;;;;;4898140;29;20047;-89
2022/02/16 08:57:14;;;;;;;37.55;18.02;;;3.60;99.90;;;;;;4895626;29;20092;-87
2022/02/16 08:59:40;;;;;;;34.97;17.10;;;3.60;99.90;;;;;;4881233;29;20052;-88
2022/02/16 09:02:09;;;;;;;45.30;20.48;;;3.60;99.90;;;;;;4894927;29;20472;-88
2022/02/16 09:04:35;;;;;;;38.35;18.88;;;3.60;99.90;;;;;;4879486;29;20486;-89
2022/02/16 09:09:48;;;;;;;36.38;17.75;;;3.60;99.90;;;;;;4899569;29;20389;-90
2022/02/16 09:12:14;;;;;;;32.15;16.88;;;3.60;99.90;;;;;;4889518;29;20028;-87
2022/02/16 09:14:40;;;;;;;34.60;19.45;;;3.60;99.90;;;;;;4913140;29;20032;-88
2022/02/16 09:17:05;;;;;;;43.75;24.40;;;3.60;99.90;;;;;;4922840;29;20028;-90
2022/02/16 09:19:35;;;;;;;39.30;23.25;;;3.60;99.90;;;;;;4902735;29;20028;-87
2022/02/16 09:22:01;;;;;;;40.00;23.42;;;3.60;99.90;;;;;;4916870;29;20577;-89
2022/02/16 09:24:33;;;;;;;36.22;20.95;;;3.60;99.90;;;;;;4899434;29;20035;-88
2022/02/16 09:26:59;;;;;;;34.50;17.98;;;3.70;99.90;;;;;;4925411;29;20036;-90
2022/02/16 09:29:25;;;;;;;34.80;15.43;;;3.70;99.90;;;;;;4907517;29;20535;-89
2022/02/16 09:31:53;;;;;;;23.17;13.50;;;3.70;99.90;;;;;;4903178;29;20099;-89
2022/02/16 09:34:19;;;;;;;33.47;19.95;;;3.70;99.90;;;;;;4921060;29;20032;-88
2022/02/16 09:36:45;;;;;;;44.15;25.20;;;3.80;99.90;;;;;;4899131;29;20093;-88
2022/02/16 09:39:11;;;;;;;40.63;20.23;;;3.80;99.90;;;;;;4915805;29;20115;-88
2022/02/16 09:41:37;;;;;;;44.28;20.00;;;3.80;99.90;;;;;;4898141;29;20028;-87
2022/02/16 09:44:04;;;;;;;31.45;20.15;;;3.90;99.90;;;;;;4898594;29;20035;-88
2022/02/16 09:46:30;;;;;;;30.65;18.50;;;3.90;99.90;;;;;;4903929;29;20051;-87
2022/02/16 09:48:57;;;;;;;35.17;20.95;;;3.90;99.90;;;;;;4899557;29;20040;-86
2022/02/16 09:51:24;;;;;;;32.40;19.88;;;3.90;99.90;;;;;;4902616;29;20032;-86
2022/02/16 09:53:50;;;;;;;32.95;19.70;;;4.00;99.90;;;;;;4899000;29;20032;-87
2022/02/16 09:56:16;;;;;;;31.80;20.00;;;4.00;99.90;;;;;;4903420;29;20036;-88
2022/02/16 09:58:42;;;;;;;40.35;23.92;;;4.00;99.90;;;;;;4899941;29;20035;-88
2022/02/16 10:01:15;;;;;;;36.75;22.52;;;4.00;99.90;;;;;;4921509;29;20028;-88
2022/02/16 10:03:59;;;;;;;27.90;16.88;;;4.10;99.90;;;;;;4903582;29;20035;-89
2022/02/16 10:06:36;;;;;;;23.52;13.15;;;4.10;99.90;;;;;;4904112;29;20676;-89
2022/02/16 10:09:07;;;;;;;24.73;11.65;;;4.10;99.90;;;;;;4905956;29;20020;-90
2022/02/16 10:11:34;;;;;;;21.33;11.25;;;4.20;99.90;;;;;;4906049;29;20044;-91
2022/02/16 10:14:23;;;;;;;24.02;13.70;;;4.10;99.90;;;;;;4918424;29;20035;-88
2022/02/16 10:16:49;;;;;;;24.83;13.32;;;4.20;99.90;;;;;;4901748;29;20474;-89
2022/02/16 10:19:15;;;;;;;24.65;13.57;;;4.20;99.90;;;;;;4916858;29;20039;-89
2022/02/16 10:22:05;;;;;;;23.95;12.10;;;4.20;99.90;;;;;;4907280;29;20029;-88
2022/02/16 10:24:32;;;;;;;18.95;9.63;;;4.20;99.90;;;;;;4887371;29;20039;-89
2022/02/16 10:26:58;;;;;;;18.13;10.30;;;4.20;99.90;;;;;;4886791;29;20044;-87
2022/02/16 10:29:27;;;;;;;20.05;9.82;;;4.20;99.90;;;;;;4903089;29;20367;-87
2022/02/16 10:31:54;;;;;;;26.23;16.88;;;4.20;99.90;;;;;;4885404;29;20535;-86
2022/02/16 10:34:19;;;;;;;31.05;20.08;;;4.30;99.90;;;;;;4891246;29;20024;-87
2022/02/16 10:36:46;;;;;;;29.92;17.33;;;4.30;99.90;;;;;;4914147;29;20024;-88
2022/02/16 10:39:16;;;;;;;30.00;18.98;;;4.20;99.90;;;;;;4914304;29;20045;-90
2022/02/16 10:41:46;;;;;;;38.25;20.83;;;4.20;99.90;;;;;;4898752;29;20044;-87
2022/02/16 10:44:29;;;;;;;30.03;18.63;;;4.20;99.90;;;;;;4903557;29;20048;-87
2022/02/16 10:47:02;;;;;;;29.75;18.05;;;4.20;99.90;;;;;;4897846;29;20055;-89
2022/02/16 10:49:29;;;;;;;25.33;14.57;;;4.20;99.90;;;;;;4897473;29;20487;-88
2022/02/16 10:52:05;;;;;;;24.75;13.75;;;4.20;99.90;;;;;;4897355;29;20047;-90
2022/02/16 10:54:35;;;;;;;21.95;12.70;;;4.30;99.90;;;;;;4897257;29;20061;-90
2022/02/16 10:57:00;;;;;;;24.95;14.68;;;4.30;99.90;;;;;;4898591;29;20040;-91
2022/02/16 10:59:26;;;;;;;26.52;15.23;;;4.40;99.90;;;;;;4882182;29;20091;-90
2022/02/16 11:01:56;;;;;;;24.45;14.02;;;4.40;99.90;;;;;;4897263;29;20698;-91
2022/02/16 11:04:26;;;;;;;21.23;12.88;;;4.40;99.90;;;;;;4896986;29;20028;-87
2022/02/16 11:06:52;;;;;;;25.38;15.05;;;4.40;99.90;;;;;;4896790;29;20036;-89
2022/02/16 11:09:22;;;;;;;26.17;13.38;;;4.50;99.90;;;;;;4899085;29;20024;-88
2022/02/16 11:11:49;;;;;;;22.13;12.70;;;4.50;99.90;;;;;;4903499;29;20032;-91
2022/02/16 11:14:17;;;;;;;19.27;11.43;;;4.50;99.90;;;;;;4914733;29;20036;-90
2022/02/16 11:16:46;;;;;;;22.50;13.02;;;4.50;99.90;;;;;;4913035;29;20471;-89
2022/02/16 11:19:35;;;;;;;22.33;12.23;;;4.50;99.90;;;;;;4896697;29;20123;-88
2022/02/16 11:22:03;;;;;;;20.65;12.77;;;4.60;99.90;;;;;;4887110;29;20048;-89
2022/02/16 11:24:36;;;;;;;21.85;12.00;;;4.60;99.90;;;;;;4877757;29;20033;-89
2022/02/16 11:27:26;;;;;;;17.48;10.93;;;4.60;99.90;;;;;;4878218;29;20044;-88
2022/02/16 11:30:01;;;;;;;15.50;9.77;;;4.60;99.90;;;;;;4877278;29;20036;-90
2022/02/16 11:32:32;;;;;;;18.50;10.95;;;4.60;99.90;;;;;;4878132;29;20451;-91
2022/02/16 11:35:09;;;;;;;;;;;4.60;99.90;;;;;;4878526;29;20490;-92
2022/02/16 11:37:38;;;;;;;21.50;12.40;;;4.60;99.90;;;;;;4894278;29;19907;-91
2022/02/16 11:40:05;;;;;;;27.33;14.80;;;4.60;99.90;;;;;;4886369;29;20033;-88
2022/02/16 11:42:46;;;;;;;26.50;13.43;;;4.70;99.90;;;;;;4865815;29;20041;-92
2022/02/16 11:45:13;;;;;;;21.50;13.15;;;4.80;99.90;;;;;;4884834;29;20052;-93
2022/02/16 11:47:42;;;;;;;22.20;13.38;;;4.80;99.90;;;;;;4879490;29;20077;-91
2022/02/16 11:50:13;;;;;;;25.60;14.38;;;4.90;99.90;;;;;;4877568;29;20032;-92
2022/02/16 11:52:39;;;;;;;22.50;12.55;;;4.90;99.90;;;;;;4893787;29;20375;-89
2022/02/16 11:55:20;;;;;;;22.48;11.88;;;4.90;99.90;;;;;;4879777;29;20020;-92
2022/02/16 11:57:51;;;;;;;19.65;11.55;;;5.00;99.90;;;;;;4896028;29;20040;-92
2022/02/16 12:00:18;;;;;;;22.83;11.73;;;5.00;99.90;;;;;;4883870;29;20025;-90
2022/02/16 12:03:08;;;;;;;23.30;11.85;;;5.00;99.90;;;;;;4894631;29;20291;-90
2022/02/16 12:05:55;;;;;;;22.50;12.95;;;5.00;99.90;;;;;;4884717;29;20036;-92
2022/02/16 12:08:25;;;;;;;26.30;15.95;;;5.00;99.90;;;;;;4891561;29;20057;-88
2022/02/16 12:11:06;;;;;;;28.17;15.40;;;5.00;99.90;;;;;;4887710;29;20123;-94
2022/02/16 12:13:38;;;;;;;25.33;14.52;;;5.00;99.90;;;;;;4884013;29;20033;-88
2022/02/16 12:16:09;;;;;;;23.88;13.10;;;5.00;99.90;;;;;;4897463;29;20024;-92
2022/02/16 12:18:41;;;;;;;20.70;12.80;;;5.00;99.90;;;;;;4896797;29;20032;-92
2022/02/16 12:21:11;;;;;;;28.85;12.52;;;5.00;99.90;;;;;;4896177;29;20032;-93
2022/02/16 12:23:42;;;;;;;23.17;11.77;;;5.00;99.90;;;;;;4895335;29;20087;-92
2022/02/16 12:26:07;;;;;;;24.85;12.43;;;5.00;99.90;;;;;;4913437;29;20028;-87
2022/02/16 12:28:56;;;;;;;24.63;12.88;;;5.00;99.90;;;;;;4902617;29;20036;-92
2022/02/16 12:31:29;;;;;;;25.25;12.45;;;5.00;99.90;;;;;;4900287;29;20485;-89
2022/02/16 12:34:01;;;;;;;25.73;12.40;;;5.00;99.90;;;;;;4900048;29;20416;-90
2022/02/16 12:36:28;;;;;;;27.27;14.45;;;5.00;99.90;;;;;;4908208;29;20023;-89
2022/02/16 12:38:56;;;;;;;25.17;12.85;;;5.00;99.90;;;;;;4901475;29;20134;-89
2022/02/16 12:41:22;;;;;;;26.40;15.10;;;5.00;99.90;;;;;;4895804;29;20186;-90